sensor_id;sensor_type;location;lat;lon;timestamp;P1;durP1;ratioP1;P2;durP2;ratioP2
47958;SDS011;33718;50.910;-1.514;2022-11-20T00:00:39;3.70;;;2.97;;
47958;SDS011;33718;50.910;-1.514;2022-11-20T00:02:41;3.80;;;3.30;;
47958;SDS011;33718;50.910;-1.514;2022-11-20T00:04:42;3.60;;;3.05;;
47958;SDS011;33718;50.910;-1.514;2022-11-20T00:06:44;3.03;;;2.70;;
47958;SDS011;33718;50.910;-1.514;2022-11-20T00:08:45;4.32;;;3.33;;
47958;SDS011;33718;50.910;-1.514;2022-11-20T00:10:47;4.15;;;3.22;;
47958;SDS011;33718;50.910;-1.514;2022-11-20T00:12:48;2.95;;;2.35;;
47958;SDS011;33718;50.910;-1.514;2022-11-20T00:14:50;3.10;;;2.70;;
47958;SDS011;33718;50.910;-1.514;2022-11-20T00:16:51;4.18;;;3.50;;
47958;SDS011;33718;50.910;-1.514;2022-11-20T00:18:53;4.10;;;3.33;;
47958;SDS011;33718;50.910;-1.514;2022-11-20T00:21:06;3.17;;;2.88;;
47958;SDS011;33718;50.910;-1.514;2022-11-20T00:23:12;3.13;;;2.78;;
47958;SDS011;33718;50.910;-1.514;2022-11-20T00:25:17;4.97;;;3.90;;
47958;SDS011;33718;50.910;-1.514;2022-11-20T00:27:35;7.28;;;5.80;;
47958;SDS011;33718;50.910;-1.514;2022-11-20T00:29:51;6.38;;;5.55;;
47958;SDS011;33718;50.910;-1.514;2022-11-20T00:32:04;8.60;;;6.30;;
47958;SDS011;33718;50.910;-1.514;2022-11-20T00:34:17;7.93;;;5.57;;
47958;SDS011;33718;50.910;-1.514;2022-11-20T00:36:32;9.48;;;7.68;;
47958;SDS011;33718;50.910;-1.514;2022-11-20T00:38:45;9.38;;;6.82;;
47958;SDS011;33718;50.910;-1.514;2022-11-20T00:40:57;6.85;;;6.07;;
47958;SDS011;33718;50.910;-1.514;2022-11-20T00:43:11;5.45;;;4.95;;
47958;SDS011;33718;50.910;-1.514;2022-11-20T00:45:23;7.18;;;4.95;;
47958;SDS011;33718;50.910;-1.514;2022-11-20T00:47:33;6.57;;;5.22;;
47958;SDS011;33718;50.910;-1.514;2022-11-20T00:49:42;7.03;;;5.55;;
47958;SDS011;33718;50.910;-1.514;2022-11-20T00:51:57;5.40;;;4.78;;
47958;SDS011;33718;50.910;-1.514;2022-11-20T00:54:09;6.25;;;4.72;;
47958;SDS011;33718;50.910;-1.514;2022-11-20T00:56:23;6.97;;;5.22;;
47958;SDS011;33718;50.910;-1.514;2022-11-20T00:58:35;5.38;;;4.00;;
47958;SDS011;33718;50.910;-1.514;2022-11-20T01:00:46;4.38;;;3.70;;
47958;SDS011;33718;50.910;-1.514;2022-11-20T01:02:48;3.88;;;3.47;;
47958;SDS011;33718;50.910;-1.514;2022-11-20T01:04:50;4.70;;;4.20;;
47958;SDS011;33718;50.910;-1.514;2022-11-20T01:06:51;5.97;;;4.60;;
47958;SDS011;33718;50.910;-1.514;2022-11-20T01:08:53;3.97;;;3.67;;
47958;SDS011;33718;50.910;-1.514;2022-11-20T01:10:59;6.07;;;4.68;;
47958;SDS011;33718;50.910;-1.514;2022-11-20T01:13:01;6.82;;;4.47;;
47958;SDS011;33718;50.910;-1.514;2022-11-20T01:15:26;6.40;;;5.55;;
47958;SDS011;33718;50.910;-1.514;2022-11-20T01:17:27;5.55;;;4.82;;
47958;SDS011;33718;50.910;-1.514;2022-11-20T01:19:29;6.03;;;4.88;;
47958;SDS011;33718;50.910;-1.514;2022-11-20T01:21:32;6.30;;;4.05;;
47958;SDS011;33718;50.910;-1.514;2022-11-20T01:23:34;4.57;;;3.55;;
47958;SDS011;33718;50.910;-1.514;2022-11-20T01:25:36;4.82;;;4.13;;
47958;SDS011;33718;50.910;-1.514;2022-11-20T01:27:37;3.53;;;3.10;;
47958;SDS011;33718;50.910;-1.514;2022-11-20T01:29:39;5.60;;;4.10;;
47958;SDS011;33718;50.910;-1.514;2022-11-20T01:31:40;4.38;;;3.97;;
47958;SDS011;33718;50.910;-1.514;2022-11-20T01:33:43;4.35;;;3.50;;
47958;SDS011;33718;50.910;-1.514;2022-11-20T01:35:45;4.03;;;3.63;;
47958;SDS011;33718;50.910;-1.514;2022-11-20T01:37:47;3.88;;;3.35;;
47958;SDS011;33718;50.910;-1.514;2022-11-20T01:39:48;3.92;;;3.63;;
47958;SDS011;33718;50.910;-1.514;2022-11-20T01:41:50;3.63;;;3.17;;
47958;SDS011;33718;50.910;-1.514;2022-11-20T01:44:12;3.90;;;2.97;;
47958;SDS011;33718;50.910;-1.514;2022-11-20T01:46:19;2.92;;;2.67;;
47958;SDS011;33718;50.910;-1.514;2022-11-20T01:48:20;2.50;;;2.00;;
47958;SDS011;33718;50.910;-1.514;2022-11-20T01:50:24;2.00;;;1.83;;
47958;SDS011;33718;50.910;-1.514;2022-11-20T01:52:34;2.58;;;2.38;;
47958;SDS011;33718;50.910;-1.514;2022-11-20T01:54:42;2.40;;;2.20;;
47958;SDS011;33718;50.910;-1.514;2022-11-20T01:56:45;1.55;;;1.45;;
47958;SDS011;33718;50.910;-1.514;2022-11-20T01:58:49;2.17;;;1.75;;
47958;SDS011;33718;50.910;-1.514;2022-11-20T02:00:52;2.30;;;2.10;;
47958;SDS011;33718;50.910;-1.514;2022-11-20T02:02:58;1.60;;;1.50;;
47958;SDS011;33718;50.910;-1.514;2022-11-20T02:05:01;1.70;;;1.60;;
47958;SDS011;33718;50.910;-1.514;2022-11-20T02:07:04;1.85;;;1.75;;
47958;SDS011;33718;50.910;-1.514;2022-11-20T02:09:06;1.45;;;1.35;;
47958;SDS011;33718;50.910;-1.514;2022-11-20T02:11:08;1.50;;;1.40;;
47958;SDS011;33718;50.910;-1.514;2022-11-20T02:13:09;1.80;;;1.70;;
47958;SDS011;33718;50.910;-1.514;2022-11-20T02:15:32;1.83;;;1.70;;
47958;SDS011;33718;50.910;-1.514;2022-11-20T02:17:33;1.63;;;1.52;;
47958;SDS011;33718;50.910;-1.514;2022-11-20T02:19:35;1.88;;;1.77;;
47958;SDS011;33718;50.910;-1.514;2022-11-20T02:26:04;1.98;;;1.88;;
47958;SDS011;33718;50.910;-1.514;2022-11-20T02:28:07;2.53;;;2.33;;
47958;SDS011;33718;50.910;-1.514;2022-11-20T02:30:09;2.75;;;2.55;;
47958;SDS011;33718;50.910;-1.514;2022-11-20T02:32:19;3.35;;;3.05;;
47958;SDS011;33718;50.910;-1.514;2022-11-20T02:34:20;3.20;;;2.90;;
47958;SDS011;33718;50.910;-1.514;2022-11-20T02:36:22;3.35;;;2.42;;
47958;SDS011;33718;50.910;-1.514;2022-11-20T02:38:25;1.95;;;1.85;;
47958;SDS011;33718;50.910;-1.514;2022-11-20T02:40:27;2.33;;;2.13;;
47958;SDS011;33718;50.910;-1.514;2022-11-20T02:42:28;2.10;;;1.90;;
47958;SDS011;33718;50.910;-1.514;2022-11-20T02:44:29;1.52;;;1.33;;
47958;SDS011;33718;50.910;-1.514;2022-11-20T02:46:31;1.35;;;1.25;;
47958;SDS011;33718;50.910;-1.514;2022-11-20T02:48:33;1.00;;;0.90;;
47958;SDS011;33718;50.910;-1.514;2022-11-20T02:50:38;1.58;;;1.00;;
47958;SDS011;33718;50.910;-1.514;2022-11-20T02:52:41;2.05;;;1.00;;
47958;SDS011;33718;50.910;-1.514;2022-11-20T02:54:42;1.65;;;1.15;;
47958;SDS011;33718;50.910;-1.514;2022-11-20T02:56:44;0.88;;;0.70;;
47958;SDS011;33718;50.910;-1.514;2022-11-20T02:58:45;0.60;;;0.60;;
47958;SDS011;33718;50.910;-1.514;2022-11-20T03:00:47;0.55;;;0.50;;
47958;SDS011;33718;50.910;-1.514;2022-11-20T03:02:48;1.38;;;0.65;;
47958;SDS011;33718;50.910;-1.514;2022-11-20T03:04:50;1.92;;;0.77;;
47958;SDS011;33718;50.910;-1.514;2022-11-20T03:06:51;0.50;;;0.40;;
47958;SDS011;33718;50.910;-1.514;2022-11-20T03:08:53;0.50;;;0.50;;
47958;SDS011;33718;50.910;-1.514;2022-11-20T03:10:55;0.63;;;0.63;;
47958;SDS011;33718;50.910;-1.514;2022-11-20T03:12:56;0.40;;;0.40;;
47958;SDS011;33718;50.910;-1.514;2022-11-20T03:14:57;0.32;;;0.32;;
47958;SDS011;33718;50.910;-1.514;2022-11-20T03:16:59;0.30;;;0.30;;
47958;SDS011;33718;50.910;-1.514;2022-11-20T03:19:00;0.40;;;0.30;;
47958;SDS011;33718;50.910;-1.514;2022-11-20T03:21:02;0.35;;;0.30;;
47958;SDS011;33718;50.910;-1.514;2022-11-20T03:23:04;0.50;;;0.30;;
47958;SDS011;33718;50.910;-1.514;2022-11-20T03:25:06;1.65;;;0.60;;
47958;SDS011;33718;50.910;-1.514;2022-11-20T03:27:08;0.60;;;0.40;;
47958;SDS011;33718;50.910;-1.514;2022-11-20T03:29:09;0.93;;;0.30;;
47958;SDS011;33718;50.910;-1.514;2022-11-20T03:31:12;2.95;;;0.60;;
47958;SDS011;33718;50.910;-1.514;2022-11-20T03:33:17;1.85;;;0.40;;
47958;SDS011;33718;50.910;-1.514;2022-11-20T03:35:21;2.92;;;0.32;;
47958;SDS011;33718;50.910;-1.514;2022-11-20T03:37:26;1.05;;;0.30;;
47958;SDS011;33718;50.910;-1.514;2022-11-20T03:39:30;2.53;;;0.43;;
47958;SDS011;33718;50.910;-1.514;2022-11-20T03:41:36;0.47;;;0.25;;
47958;SDS011;33718;50.910;-1.514;2022-11-20T03:43:41;0.82;;;0.20;;
47958;SDS011;33718;50.910;-1.514;2022-11-20T03:45:46;0.15;;;0.15;;
47958;SDS011;33718;50.910;-1.514;2022-11-20T03:47:50;2.22;;;0.30;;
47958;SDS011;33718;50.910;-1.514;2022-11-20T03:49:55;2.53;;;0.50;;
47958;SDS011;33718;50.910;-1.514;2022-11-20T03:51:59;0.20;;;0.20;;
47958;SDS011;33718;50.910;-1.514;2022-11-20T03:54:05;0.98;;;0.20;;
47958;SDS011;33718;50.910;-1.514;2022-11-20T03:56:10;2.00;;;0.40;;
47958;SDS011;33718;50.910;-1.514;2022-11-20T03:58:13;0.25;;;0.20;;
47958;SDS011;33718;50.910;-1.514;2022-11-20T04:00:17;0.25;;;0.13;;
47958;SDS011;33718;50.910;-1.514;2022-11-20T04:02:22;0.80;;;0.20;;
47958;SDS011;33718;50.910;-1.514;2022-11-20T04:04:27;0.40;;;0.40;;
47958;SDS011;33718;50.910;-1.514;2022-11-20T04:06:33;0.20;;;0.05;;
47958;SDS011;33718;50.910;-1.514;2022-11-20T04:08:37;0.10;;;0.10;;
47958;SDS011;33718;50.910;-1.514;2022-11-20T04:10:39;0.10;;;0.10;;
47958;SDS011;33718;50.910;-1.514;2022-11-20T04:12:40;0.15;;;0.10;;
47958;SDS011;33718;50.910;-1.514;2022-11-20T04:14:42;0.10;;;0.10;;
47958;SDS011;33718;50.910;-1.514;2022-11-20T04:16:44;0.10;;;0.10;;
47958;SDS011;33718;50.910;-1.514;2022-11-20T04:18:45;0.63;;;0.10;;
47958;SDS011;33718;50.910;-1.514;2022-11-20T04:20:47;0.63;;;0.10;;
47958;SDS011;33718;50.910;-1.514;2022-11-20T04:22:48;0.57;;;0.20;;
47958;SDS011;33718;50.910;-1.514;2022-11-20T04:24:50;1.13;;;0.10;;
47958;SDS011;33718;50.910;-1.514;2022-11-20T04:26:51;0.10;;;0.00;;
47958;SDS011;33718;50.910;-1.514;2022-11-20T04:28:53;0.30;;;0.10;;
47958;SDS011;33718;50.910;-1.514;2022-11-20T04:30:54;0.05;;;0.05;;
47958;SDS011;33718;50.910;-1.514;2022-11-20T04:33:02;0.10;;;0.00;;
47958;SDS011;33718;50.910;-1.514;2022-11-20T04:35:04;0.10;;;0.10;;
47958;SDS011;33718;50.910;-1.514;2022-11-20T04:37:06;0.60;;;0.20;;
47958;SDS011;33718;50.910;-1.514;2022-11-20T04:39:11;0.55;;;0.20;;
47958;SDS011;33718;50.910;-1.514;2022-11-20T04:41:17;0.80;;;0.10;;
47958;SDS011;33718;50.910;-1.514;2022-11-20T04:43:19;0.47;;;0.22;;
47958;SDS011;33718;50.910;-1.514;2022-11-20T04:45:21;0.10;;;0.10;;
47958;SDS011;33718;50.910;-1.514;2022-11-20T04:47:23;0.10;;;0.10;;
47958;SDS011;33718;50.910;-1.514;2022-11-20T04:49:25;1.02;;;0.20;;
47958;SDS011;33718;50.910;-1.514;2022-11-20T04:51:26;0.32;;;0.10;;
47958;SDS011;33718;50.910;-1.514;2022-11-20T04:53:28;0.10;;;0.10;;
47958;SDS011;33718;50.910;-1.514;2022-11-20T04:55:30;0.73;;;0.10;;
47958;SDS011;33718;50.910;-1.514;2022-11-20T04:57:31;0.43;;;0.20;;
47958;SDS011;33718;50.910;-1.514;2022-11-20T04:59:33;0.17;;;0.10;;
47958;SDS011;33718;50.910;-1.514;2022-11-20T05:01:35;0.13;;;0.03;;
47958;SDS011;33718;50.910;-1.514;2022-11-20T05:03:36;0.50;;;0.10;;
47958;SDS011;33718;50.910;-1.514;2022-11-20T05:05:43;0.25;;;0.25;;
47958;SDS011;33718;50.910;-1.514;2022-11-20T05:07:44;0.88;;;0.10;;
47958;SDS011;33718;50.910;-1.514;2022-11-20T05:09:45;0.10;;;0.10;;
47958;SDS011;33718;50.910;-1.514;2022-11-20T05:11:47;2.58;;;0.30;;
47958;SDS011;33718;50.910;-1.514;2022-11-20T05:13:51;0.25;;;0.08;;
47958;SDS011;33718;50.910;-1.514;2022-11-20T05:15:53;1.13;;;0.10;;
47958;SDS011;33718;50.910;-1.514;2022-11-20T05:17:55;0.45;;;0.10;;
47958;SDS011;33718;50.910;-1.514;2022-11-20T05:19:56;0.77;;;0.10;;
47958;SDS011;33718;50.910;-1.514;2022-11-20T05:21:58;0.93;;;0.38;;
47958;SDS011;33718;50.910;-1.514;2022-11-20T05:24:00;0.20;;;0.03;;
47958;SDS011;33718;50.910;-1.514;2022-11-20T05:26:01;0.28;;;0.10;;
47958;SDS011;33718;50.910;-1.514;2022-11-20T05:28:03;0.55;;;0.10;;
47958;SDS011;33718;50.910;-1.514;2022-11-20T05:30:05;0.88;;;0.03;;
47958;SDS011;33718;50.910;-1.514;2022-11-20T05:32:07;0.75;;;0.20;;
47958;SDS011;33718;50.910;-1.514;2022-11-20T05:34:10;0.70;;;0.10;;
47958;SDS011;33718;50.910;-1.514;2022-11-20T05:36:13;0.10;;;0.10;;
47958;SDS011;33718;50.910;-1.514;2022-11-20T05:38:15;0.25;;;0.20;;
47958;SDS011;33718;50.910;-1.514;2022-11-20T05:40:17;0.10;;;0.00;;
47958;SDS011;33718;50.910;-1.514;2022-11-20T05:42:18;0.65;;;0.20;;
47958;SDS011;33718;50.910;-1.514;2022-11-20T05:44:32;1.70;;;0.20;;
47958;SDS011;33718;50.910;-1.514;2022-11-20T05:46:34;0.52;;;0.10;;
47958;SDS011;33718;50.910;-1.514;2022-11-20T05:48:35;1.10;;;0.20;;
47958;SDS011;33718;50.910;-1.514;2022-11-20T05:50:37;0.43;;;0.10;;
47958;SDS011;33718;50.910;-1.514;2022-11-20T05:52:39;1.00;;;0.17;;
47958;SDS011;33718;50.910;-1.514;2022-11-20T05:54:40;0.35;;;0.20;;
47958;SDS011;33718;50.910;-1.514;2022-11-20T05:56:42;0.10;;;0.00;;
47958;SDS011;33718;50.910;-1.514;2022-11-20T05:58:44;0.00;;;0.00;;
47958;SDS011;33718;50.910;-1.514;2022-11-20T06:00:45;0.03;;;0.00;;
47958;SDS011;33718;50.910;-1.514;2022-11-20T06:02:47;0.00;;;0.00;;
47958;SDS011;33718;50.910;-1.514;2022-11-20T06:04:49;0.00;;;0.00;;
47958;SDS011;33718;50.910;-1.514;2022-11-20T06:06:50;0.63;;;0.10;;
47958;SDS011;33718;50.910;-1.514;2022-11-20T06:08:51;0.10;;;0.05;;
47958;SDS011;33718;50.910;-1.514;2022-11-20T06:10:53;0.45;;;0.00;;
47958;SDS011;33718;50.910;-1.514;2022-11-20T06:12:57;0.15;;;0.03;;
47958;SDS011;33718;50.910;-1.514;2022-11-20T06:14:58;0.10;;;0.05;;
47958;SDS011;33718;50.910;-1.514;2022-11-20T06:17:00;0.00;;;0.00;;
47958;SDS011;33718;50.910;-1.514;2022-11-20T06:19:02;0.10;;;0.10;;
47958;SDS011;33718;50.910;-1.514;2022-11-20T06:21:05;0.00;;;0.00;;
47958;SDS011;33718;50.910;-1.514;2022-11-20T06:23:06;1.30;;;0.15;;
47958;SDS011;33718;50.910;-1.514;2022-11-20T06:25:08;0.55;;;0.20;;
47958;SDS011;33718;50.910;-1.514;2022-11-20T06:27:10;0.15;;;0.10;;
47958;SDS011;33718;50.910;-1.514;2022-11-20T06:29:11;1.45;;;0.35;;
47958;SDS011;33718;50.910;-1.514;2022-11-20T06:31:14;0.30;;;0.30;;
47958;SDS011;33718;50.910;-1.514;2022-11-20T06:33:15;0.73;;;0.30;;
47958;SDS011;33718;50.910;-1.514;2022-11-20T06:35:21;2.10;;;0.30;;
47958;SDS011;33718;50.910;-1.514;2022-11-20T06:37:36;1.02;;;0.40;;
47958;SDS011;33718;50.910;-1.514;2022-11-20T06:39:53;2.17;;;0.30;;
47958;SDS011;33718;50.910;-1.514;2022-11-20T06:42:11;0.52;;;0.30;;
47958;SDS011;33718;50.910;-1.514;2022-11-20T06:44:32;1.27;;;0.55;;
47958;SDS011;33718;50.910;-1.514;2022-11-20T06:46:48;0.85;;;0.38;;
47958;SDS011;33718;50.910;-1.514;2022-11-20T06:49:02;0.38;;;0.30;;
47958;SDS011;33718;50.910;-1.514;2022-11-20T06:51:18;0.30;;;0.30;;
47958;SDS011;33718;50.910;-1.514;2022-11-20T06:53:43;0.15;;;0.15;;
47958;SDS011;33718;50.910;-1.514;2022-11-20T06:56:02;0.40;;;0.40;;
47958;SDS011;33718;50.910;-1.514;2022-11-20T06:58:29;0.65;;;0.35;;
47958;SDS011;33718;50.910;-1.514;2022-11-20T07:00:49;0.28;;;0.20;;
47958;SDS011;33718;50.910;-1.514;2022-11-20T07:03:12;0.38;;;0.30;;
47958;SDS011;33718;50.910;-1.514;2022-11-20T07:05:27;0.60;;;0.40;;
47958;SDS011;33718;50.910;-1.514;2022-11-20T07:07:41;2.78;;;0.55;;
47958;SDS011;33718;50.910;-1.514;2022-11-20T07:09:43;0.43;;;0.20;;
47958;SDS011;33718;50.910;-1.514;2022-11-20T07:11:44;0.40;;;0.30;;
47958;SDS011;33718;50.910;-1.514;2022-11-20T07:13:47;0.20;;;0.20;;
47958;SDS011;33718;50.910;-1.514;2022-11-20T07:15:48;0.50;;;0.30;;
47958;SDS011;33718;50.910;-1.514;2022-11-20T07:17:50;0.20;;;0.20;;
47958;SDS011;33718;50.910;-1.514;2022-11-20T07:19:52;0.20;;;0.10;;
47958;SDS011;33718;50.910;-1.514;2022-11-20T07:21:53;0.38;;;0.10;;
47958;SDS011;33718;50.910;-1.514;2022-11-20T07:23:55;0.20;;;0.20;;
47958;SDS011;33718;50.910;-1.514;2022-11-20T07:25:57;0.40;;;0.22;;
47958;SDS011;33718;50.910;-1.514;2022-11-20T07:27:59;0.20;;;0.20;;
47958;SDS011;33718;50.910;-1.514;2022-11-20T07:30:02;0.10;;;0.10;;
47958;SDS011;33718;50.910;-1.514;2022-11-20T07:32:04;0.30;;;0.20;;
47958;SDS011;33718;50.910;-1.514;2022-11-20T07:34:05;0.10;;;0.10;;
47958;SDS011;33718;50.910;-1.514;2022-11-20T07:36:07;0.10;;;0.10;;
47958;SDS011;33718;50.910;-1.514;2022-11-20T07:38:09;0.15;;;0.15;;
47958;SDS011;33718;50.910;-1.514;2022-11-20T07:40:11;3.40;;;0.47;;
47958;SDS011;33718;50.910;-1.514;2022-11-20T07:42:13;0.43;;;0.30;;
47958;SDS011;33718;50.910;-1.514;2022-11-20T07:44:14;0.50;;;0.22;;
47958;SDS011;33718;50.910;-1.514;2022-11-20T07:46:16;3.45;;;0.43;;
47958;SDS011;33718;50.910;-1.514;2022-11-20T07:48:18;2.08;;;0.50;;
47958;SDS011;33718;50.910;-1.514;2022-11-20T07:50:19;0.25;;;0.20;;
47958;SDS011;33718;50.910;-1.514;2022-11-20T07:52:21;0.57;;;0.40;;
47958;SDS011;33718;50.910;-1.514;2022-11-20T07:54:23;0.22;;;0.20;;
47958;SDS011;33718;50.910;-1.514;2022-11-20T07:56:24;3.50;;;0.70;;
47958;SDS011;33718;50.910;-1.514;2022-11-20T07:58:26;2.90;;;0.57;;
47958;SDS011;33718;50.910;-1.514;2022-11-20T08:00:29;0.85;;;0.40;;
47958;SDS011;33718;50.910;-1.514;2022-11-20T08:02:31;0.50;;;0.30;;
47958;SDS011;33718;50.910;-1.514;2022-11-20T08:04:33;0.47;;;0.32;;
47958;SDS011;33718;50.910;-1.514;2022-11-20T08:06:35;0.17;;;0.15;;
47958;SDS011;33718;50.910;-1.514;2022-11-20T08:08:37;0.20;;;0.20;;
47958;SDS011;33718;50.910;-1.514;2022-11-20T08:10:43;1.00;;;0.60;;
47958;SDS011;33718;50.910;-1.514;2022-11-20T08:12:46;1.23;;;0.45;;
47958;SDS011;33718;50.910;-1.514;2022-11-20T08:15:06;0.75;;;0.40;;
47958;SDS011;33718;50.910;-1.514;2022-11-20T08:17:13;1.75;;;0.52;;
47958;SDS011;33718;50.910;-1.514;2022-11-20T08:19:16;0.45;;;0.25;;
47958;SDS011;33718;50.910;-1.514;2022-11-20T08:21:17;0.43;;;0.30;;
47958;SDS011;33718;50.910;-1.514;2022-11-20T08:23:19;0.40;;;0.40;;
47958;SDS011;33718;50.910;-1.514;2022-11-20T08:25:20;0.60;;;0.40;;
47958;SDS011;33718;50.910;-1.514;2022-11-20T08:27:22;2.40;;;0.63;;
47958;SDS011;33718;50.910;-1.514;2022-11-20T08:29:24;1.35;;;0.28;;
47958;SDS011;33718;50.910;-1.514;2022-11-20T08:31:26;0.60;;;0.30;;
47958;SDS011;33718;50.910;-1.514;2022-11-20T08:33:28;0.43;;;0.20;;
47958;SDS011;33718;50.910;-1.514;2022-11-20T08:35:36;0.45;;;0.40;;
47958;SDS011;33718;50.910;-1.514;2022-11-20T08:37:38;1.08;;;0.57;;
47958;SDS011;33718;50.910;-1.514;2022-11-20T08:39:42;7.38;;;0.80;;
47958;SDS011;33718;50.910;-1.514;2022-11-20T08:41:44;2.38;;;0.70;;
47958;SDS011;33718;50.910;-1.514;2022-11-20T08:43:45;1.65;;;0.63;;
47958;SDS011;33718;50.910;-1.514;2022-11-20T08:45:47;2.22;;;0.75;;
47958;SDS011;33718;50.910;-1.514;2022-11-20T08:47:49;3.38;;;0.60;;
47958;SDS011;33718;50.910;-1.514;2022-11-20T08:49:50;2.00;;;0.50;;
47958;SDS011;33718;50.910;-1.514;2022-11-20T08:51:52;3.13;;;1.23;;
47958;SDS011;33718;50.910;-1.514;2022-11-20T08:55:58;1.70;;;0.70;;
47958;SDS011;33718;50.910;-1.514;2022-11-20T08:58:03;1.90;;;0.50;;
47958;SDS011;33718;50.910;-1.514;2022-11-20T09:00:07;1.95;;;0.68;;
47958;SDS011;33718;50.910;-1.514;2022-11-20T09:02:11;4.47;;;1.02;;
47958;SDS011;33718;50.910;-1.514;2022-11-20T09:04:13;4.65;;;0.98;;
47958;SDS011;33718;50.910;-1.514;2022-11-20T09:06:15;5.15;;;1.10;;
47958;SDS011;33718;50.910;-1.514;2022-11-20T09:08:17;6.45;;;1.75;;
47958;SDS011;33718;50.910;-1.514;2022-11-20T09:10:18;5.10;;;1.25;;
47958;SDS011;33718;50.910;-1.514;2022-11-20T09:12:25;3.65;;;1.15;;
47958;SDS011;33718;50.910;-1.514;2022-11-20T09:14:26;3.05;;;0.90;;
47958;SDS011;33718;50.910;-1.514;2022-11-20T09:16:30;2.47;;;0.70;;
47958;SDS011;33718;50.910;-1.514;2022-11-20T09:18:32;2.33;;;0.95;;
47958;SDS011;33718;50.910;-1.514;2022-11-20T09:20:34;4.10;;;1.33;;
47958;SDS011;33718;50.910;-1.514;2022-11-20T09:22:38;6.50;;;2.03;;
47958;SDS011;33718;50.910;-1.514;2022-11-20T09:24:40;8.75;;;1.80;;
47958;SDS011;33718;50.910;-1.514;2022-11-20T09:26:43;3.47;;;1.20;;
47958;SDS011;33718;50.910;-1.514;2022-11-20T09:28:45;2.55;;;1.08;;
47958;SDS011;33718;50.910;-1.514;2022-11-20T09:30:46;2.50;;;0.90;;
47958;SDS011;33718;50.910;-1.514;2022-11-20T09:32:48;2.70;;;0.68;;
47958;SDS011;33718;50.910;-1.514;2022-11-20T09:34:50;10.98;;;2.22;;
47958;SDS011;33718;50.910;-1.514;2022-11-20T09:36:52;3.75;;;1.00;;
47958;SDS011;33718;50.910;-1.514;2022-11-20T09:38:53;3.22;;;1.10;;
47958;SDS011;33718;50.910;-1.514;2022-11-20T09:40:57;3.58;;;1.10;;
47958;SDS011;33718;50.910;-1.514;2022-11-20T09:43:10;3.22;;;0.80;;
47958;SDS011;33718;50.910;-1.514;2022-11-20T09:50:40;4.88;;;1.60;;
47958;SDS011;33718;50.910;-1.514;2022-11-20T09:55:36;3.08;;;1.13;;
47958;SDS011;33718;50.910;-1.514;2022-11-20T09:57:51;7.10;;;1.52;;
47958;SDS011;33718;50.910;-1.514;2022-11-20T10:00:08;3.58;;;0.90;;
47958;SDS011;33718;50.910;-1.514;2022-11-20T10:04:39;5.28;;;1.30;;
47958;SDS011;33718;50.910;-1.514;2022-11-20T10:09:40;2.38;;;0.93;;
47958;SDS011;33718;50.910;-1.514;2022-11-20T10:12:14;2.55;;;1.00;;
47958;SDS011;33718;50.910;-1.514;2022-11-20T10:23:29;5.82;;;1.52;;
47958;SDS011;33718;50.910;-1.514;2022-11-20T10:29:38;7.80;;;1.10;;
47958;SDS011;33718;50.910;-1.514;2022-11-20T10:31:41;5.07;;;1.40;;
47958;SDS011;33718;50.910;-1.514;2022-11-20T10:33:44;3.80;;;1.10;;
47958;SDS011;33718;50.910;-1.514;2022-11-20T10:36:21;3.22;;;0.82;;
47958;SDS011;33718;50.910;-1.514;2022-11-20T10:38:31;3.50;;;1.20;;
47958;SDS011;33718;50.910;-1.514;2022-11-20T10:40:46;3.67;;;1.17;;
47958;SDS011;33718;50.910;-1.514;2022-11-20T10:42:53;5.95;;;1.70;;
47958;SDS011;33718;50.910;-1.514;2022-11-20T10:44:58;6.65;;;1.42;;
47958;SDS011;33718;50.910;-1.514;2022-11-20T10:47:17;4.30;;;1.35;;
47958;SDS011;33718;50.910;-1.514;2022-11-20T10:49:19;7.60;;;1.45;;
47958;SDS011;33718;50.910;-1.514;2022-11-20T10:51:34;6.20;;;1.70;;
47958;SDS011;33718;50.910;-1.514;2022-11-20T10:55:39;5.13;;;1.27;;
47958;SDS011;33718;50.910;-1.514;2022-11-20T10:58:01;2.80;;;0.98;;
47958;SDS011;33718;50.910;-1.514;2022-11-20T11:00:06;3.95;;;1.27;;
47958;SDS011;33718;50.910;-1.514;2022-11-20T11:06:38;6.28;;;1.88;;
47958;SDS011;33718;50.910;-1.514;2022-11-20T11:08:41;3.83;;;1.50;;
47958;SDS011;33718;50.910;-1.514;2022-11-20T11:10:45;2.90;;;0.77;;
47958;SDS011;33718;50.910;-1.514;2022-11-20T11:12:48;7.38;;;1.15;;
47958;SDS011;33718;50.910;-1.514;2022-11-20T11:14:53;3.20;;;0.82;;
47958;SDS011;33718;50.910;-1.514;2022-11-20T11:16:56;2.80;;;0.85;;
47958;SDS011;33718;50.910;-1.514;2022-11-20T11:19:11;5.93;;;1.10;;
47958;SDS011;33718;50.910;-1.514;2022-11-20T11:21:13;3.03;;;1.30;;
47958;SDS011;33718;50.910;-1.514;2022-11-20T11:23:32;6.72;;;1.45;;
47958;SDS011;33718;50.910;-1.514;2022-11-20T11:25:35;5.75;;;1.48;;
47958;SDS011;33718;50.910;-1.514;2022-11-20T11:27:45;9.48;;;2.20;;
47958;SDS011;33718;50.910;-1.514;2022-11-20T11:29:46;7.65;;;1.90;;
47958;SDS011;33718;50.910;-1.514;2022-11-20T11:31:48;12.82;;;2.50;;
47958;SDS011;33718;50.910;-1.514;2022-11-20T11:33:50;7.45;;;1.98;;
47958;SDS011;33718;50.910;-1.514;2022-11-20T11:35:52;8.38;;;1.85;;
47958;SDS011;33718;50.910;-1.514;2022-11-20T11:38:01;8.15;;;2.75;;
47958;SDS011;33718;50.910;-1.514;2022-11-20T11:40:03;11.30;;;1.83;;
47958;SDS011;33718;50.910;-1.514;2022-11-20T11:42:25;7.57;;;1.88;;
47958;SDS011;33718;50.910;-1.514;2022-11-20T11:44:32;9.60;;;1.67;;
47958;SDS011;33718;50.910;-1.514;2022-11-20T11:46:53;6.95;;;1.92;;
47958;SDS011;33718;50.910;-1.514;2022-11-20T11:48:56;5.65;;;1.80;;
47958;SDS011;33718;50.910;-1.514;2022-11-20T11:50:58;7.28;;;2.00;;
47958;SDS011;33718;50.910;-1.514;2022-11-20T11:55:02;6.25;;;1.98;;
47958;SDS011;33718;50.910;-1.514;2022-11-20T11:57:26;4.97;;;1.70;;
47958;SDS011;33718;50.910;-1.514;2022-11-20T12:01:54;2.13;;;0.93;;
47958;SDS011;33718;50.910;-1.514;2022-11-20T12:06:01;4.85;;;1.67;;
47958;SDS011;33718;50.910;-1.514;2022-11-20T12:08:11;5.68;;;1.65;;
47958;SDS011;33718;50.910;-1.514;2022-11-20T12:10:21;5.88;;;1.38;;
47958;SDS011;33718;50.910;-1.514;2022-11-20T12:12:27;3.80;;;1.55;;
47958;SDS011;33718;50.910;-1.514;2022-11-20T12:14:35;6.20;;;1.65;;
47958;SDS011;33718;50.910;-1.514;2022-11-20T12:16:38;6.65;;;1.77;;
47958;SDS011;33718;50.910;-1.514;2022-11-20T12:18:40;7.20;;;1.95;;
47958;SDS011;33718;50.910;-1.514;2022-11-20T12:20:45;10.05;;;2.30;;
47958;SDS011;33718;50.910;-1.514;2022-11-20T12:22:54;6.38;;;2.10;;
47958;SDS011;33718;50.910;-1.514;2022-11-20T12:27:05;8.52;;;2.00;;
47958;SDS011;33718;50.910;-1.514;2022-11-20T12:29:16;12.70;;;1.90;;
47958;SDS011;33718;50.910;-1.514;2022-11-20T12:31:30;5.35;;;1.60;;
47958;SDS011;33718;50.910;-1.514;2022-11-20T12:35:56;5.57;;;1.58;;
47958;SDS011;33718;50.910;-1.514;2022-11-20T12:42:37;3.72;;;1.05;;
47958;SDS011;33718;50.910;-1.514;2022-11-20T12:55:28;6.47;;;1.60;;
47958;SDS011;33718;50.910;-1.514;2022-11-20T12:57:50;4.82;;;1.05;;
47958;SDS011;33718;50.910;-1.514;2022-11-20T13:00:20;5.57;;;1.33;;
47958;SDS011;33718;50.910;-1.514;2022-11-20T13:07:20;2.78;;;0.70;;
47958;SDS011;33718;50.910;-1.514;2022-11-20T13:09:43;2.72;;;1.10;;
47958;SDS011;33718;50.910;-1.514;2022-11-20T13:14:46;2.97;;;0.57;;
47958;SDS011;33718;50.910;-1.514;2022-11-20T13:19:21;4.90;;;1.08;;
47958;SDS011;33718;50.910;-1.514;2022-11-20T13:21:36;2.45;;;0.60;;
47958;SDS011;33718;50.910;-1.514;2022-11-20T13:24:03;1.13;;;0.55;;
47958;SDS011;33718;50.910;-1.514;2022-11-20T13:26:24;2.45;;;0.73;;
47958;SDS011;33718;50.910;-1.514;2022-11-20T13:28:27;4.97;;;1.30;;
47958;SDS011;33718;50.910;-1.514;2022-11-20T13:30:35;5.82;;;0.70;;
47958;SDS011;33718;50.910;-1.514;2022-11-20T13:32:47;2.38;;;0.95;;
47958;SDS011;33718;50.910;-1.514;2022-11-20T13:34:55;2.33;;;0.82;;
47958;SDS011;33718;50.910;-1.514;2022-11-20T13:36:57;3.00;;;1.08;;
47958;SDS011;33718;50.910;-1.514;2022-11-20T13:39:01;4.30;;;1.25;;